sensor_id;sensor_type;location;lat;lon;timestamp;P1;durP1;ratioP1;P2;durP2;ratioP2
50128;SDS011;36026;45.478;9.224;2023-08-30T00:01:09;5.55;;;2.42;;
50128;SDS011;36026;45.478;9.224;2023-08-30T00:04:12;3.95;;;2.63;;
50128;SDS011;36026;45.478;9.224;2023-08-30T00:07:14;5.97;;;3.35;;
50128;SDS011;36026;45.478;9.224;2023-08-30T00:10:16;3.63;;;2.50;;
50128;SDS011;36026;45.478;9.224;2023-08-30T00:13:18;6.97;;;2.85;;
50128;SDS011;36026;45.478;9.224;2023-08-30T00:16:20;5.30;;;2.30;;
50128;SDS011;36026;45.478;9.224;2023-08-30T00:19:26;4.70;;;2.20;;
50128;SDS011;36026;45.478;9.224;2023-08-30T00:22:27;5.88;;;2.47;;
50128;SDS011;36026;45.478;9.224;2023-08-30T00:25:32;4.82;;;2.00;;
50128;SDS011;36026;45.478;9.224;2023-08-30T00:28:38;4.47;;;2.08;;
50128;SDS011;36026;45.478;9.224;2023-08-30T00:31:42;5.47;;;2.03;;
50128;SDS011;36026;45.478;9.224;2023-08-30T00:34:45;3.95;;;1.90;;
50128;SDS011;36026;45.478;9.224;2023-08-30T00:37:47;5.88;;;2.55;;
50128;SDS011;36026;45.478;9.224;2023-08-30T00:40:49;5.30;;;2.40;;
50128;SDS011;36026;45.478;9.224;2023-08-30T00:43:51;5.05;;;2.05;;
50128;SDS011;36026;45.478;9.224;2023-08-30T00:46:52;9.38;;;2.30;;
50128;SDS011;36026;45.478;9.224;2023-08-30T00:49:56;5.93;;;2.33;;
50128;SDS011;36026;45.478;9.224;2023-08-30T00:52:57;5.30;;;2.67;;
50128;SDS011;36026;45.478;9.224;2023-08-30T00:55:59;3.72;;;2.13;;
50128;SDS011;36026;45.478;9.224;2023-08-30T00:59:01;5.18;;;2.35;;
50128;SDS011;36026;45.478;9.224;2023-08-30T01:02:03;5.97;;;2.05;;
50128;SDS011;36026;45.478;9.224;2023-08-30T01:05:07;5.28;;;2.08;;
50128;SDS011;36026;45.478;9.224;2023-08-30T01:08:10;3.80;;;2.00;;
50128;SDS011;36026;45.478;9.224;2023-08-30T01:11:13;5.20;;;2.28;;
50128;SDS011;36026;45.478;9.224;2023-08-30T01:14:20;4.43;;;1.88;;
50128;SDS011;36026;45.478;9.224;2023-08-30T01:17:23;6.50;;;2.53;;
50128;SDS011;36026;45.478;9.224;2023-08-30T01:20:28;4.57;;;2.27;;
50128;SDS011;36026;45.478;9.224;2023-08-30T01:23:33;5.05;;;2.17;;
50128;SDS011;36026;45.478;9.224;2023-08-30T01:26:41;6.47;;;2.80;;
50128;SDS011;36026;45.478;9.224;2023-08-30T01:29:47;4.15;;;2.63;;
50128;SDS011;36026;45.478;9.224;2023-08-30T01:32:50;5.03;;;2.45;;
50128;SDS011;36026;45.478;9.224;2023-08-30T01:35:53;5.10;;;1.92;;
50128;SDS011;36026;45.478;9.224;2023-08-30T01:38:56;6.25;;;2.08;;
50128;SDS011;36026;45.478;9.224;2023-08-30T01:41:59;5.43;;;2.25;;
50128;SDS011;36026;45.478;9.224;2023-08-30T01:45:02;3.75;;;2.00;;
50128;SDS011;36026;45.478;9.224;2023-08-30T01:48:05;5.97;;;2.15;;
50128;SDS011;36026;45.478;9.224;2023-08-30T01:51:08;11.35;;;2.65;;
50128;SDS011;36026;45.478;9.224;2023-08-30T01:54:11;5.35;;;1.98;;
50128;SDS011;36026;45.478;9.224;2023-08-30T01:57:14;7.25;;;2.22;;
50128;SDS011;36026;45.478;9.224;2023-08-30T02:00:18;4.65;;;2.22;;
50128;SDS011;36026;45.478;9.224;2023-08-30T02:03:20;6.82;;;2.55;;
50128;SDS011;36026;45.478;9.224;2023-08-30T02:06:23;5.15;;;1.98;;
50128;SDS011;36026;45.478;9.224;2023-08-30T02:09:28;5.65;;;2.10;;
50128;SDS011;36026;45.478;9.224;2023-08-30T02:12:34;5.25;;;2.40;;
50128;SDS011;36026;45.478;9.224;2023-08-30T02:15:44;4.18;;;1.98;;
50128;SDS011;36026;45.478;9.224;2023-08-30T02:18:47;6.65;;;2.28;;
50128;SDS011;36026;45.478;9.224;2023-08-30T02:21:50;6.15;;;2.00;;
50128;SDS011;36026;45.478;9.224;2023-08-30T02:24:52;8.63;;;2.22;;
50128;SDS011;36026;45.478;9.224;2023-08-30T02:27:53;6.32;;;2.22;;
50128;SDS011;36026;45.478;9.224;2023-08-30T02:30:57;5.70;;;2.08;;
50128;SDS011;36026;45.478;9.224;2023-08-30T02:33:58;5.10;;;2.03;;
50128;SDS011;36026;45.478;9.224;2023-08-30T02:37:00;9.18;;;1.90;;
50128;SDS011;36026;45.478;9.224;2023-08-30T02:40:02;3.90;;;2.00;;
50128;SDS011;36026;45.478;9.224;2023-08-30T02:43:04;5.32;;;2.30;;
50128;SDS011;36026;45.478;9.224;2023-08-30T02:46:07;5.30;;;1.70;;
50128;SDS011;36026;45.478;9.224;2023-08-30T02:49:09;4.88;;;2.00;;
50128;SDS011;36026;45.478;9.224;2023-08-30T02:52:11;4.13;;;1.90;;
50128;SDS011;36026;45.478;9.224;2023-08-30T02:55:13;6.32;;;2.10;;
50128;SDS011;36026;45.478;9.224;2023-08-30T02:58:15;6.13;;;2.20;;
50128;SDS011;36026;45.478;9.224;2023-08-30T03:04:22;4.43;;;1.80;;
50128;SDS011;36026;45.478;9.224;2023-08-30T03:07:23;4.03;;;1.70;;
50128;SDS011;36026;45.478;9.224;2023-08-30T03:10:25;7.63;;;2.20;;
50128;SDS011;36026;45.478;9.224;2023-08-30T03:13:27;4.47;;;1.85;;
50128;SDS011;36026;45.478;9.224;2023-08-30T03:16:30;4.90;;;2.28;;
50128;SDS011;36026;45.478;9.224;2023-08-30T03:19:33;5.25;;;2.10;;
50128;SDS011;36026;45.478;9.224;2023-08-30T03:22:35;5.00;;;2.70;;
50128;SDS011;36026;45.478;9.224;2023-08-30T03:25:37;4.47;;;2.25;;
50128;SDS011;36026;45.478;9.224;2023-08-30T03:28:39;5.45;;;2.13;;
50128;SDS011;36026;45.478;9.224;2023-08-30T03:31:46;10.65;;;2.30;;
50128;SDS011;36026;45.478;9.224;2023-08-30T03:34:56;9.27;;;2.35;;
50128;SDS011;36026;45.478;9.224;2023-08-30T03:37:59;6.50;;;2.35;;
50128;SDS011;36026;45.478;9.224;2023-08-30T03:41:01;6.25;;;2.35;;
50128;SDS011;36026;45.478;9.224;2023-08-30T03:44:04;3.45;;;1.85;;
50128;SDS011;36026;45.478;9.224;2023-08-30T03:47:07;4.10;;;2.00;;
50128;SDS011;36026;45.478;9.224;2023-08-30T03:50:09;8.50;;;2.78;;
50128;SDS011;36026;45.478;9.224;2023-08-30T03:53:11;4.40;;;2.20;;
50128;SDS011;36026;45.478;9.224;2023-08-30T03:56:13;4.43;;;2.28;;
50128;SDS011;36026;45.478;9.224;2023-08-30T03:59:15;6.22;;;1.92;;
50128;SDS011;36026;45.478;9.224;2023-08-30T04:02:18;4.82;;;2.42;;
50128;SDS011;36026;45.478;9.224;2023-08-30T04:05:20;9.88;;;2.95;;
50128;SDS011;36026;45.478;9.224;2023-08-30T04:08:22;6.65;;;2.25;;
50128;SDS011;36026;45.478;9.224;2023-08-30T04:11:26;8.07;;;2.10;;
50128;SDS011;36026;45.478;9.224;2023-08-30T04:14:29;4.82;;;2.05;;
50128;SDS011;36026;45.478;9.224;2023-08-30T04:17:32;4.95;;;2.38;;
50128;SDS011;36026;45.478;9.224;2023-08-30T04:20:34;4.45;;;2.35;;
50128;SDS011;36026;45.478;9.224;2023-08-30T04:23:36;4.22;;;2.30;;
50128;SDS011;36026;45.478;9.224;2023-08-30T04:26:37;3.25;;;2.08;;
50128;SDS011;36026;45.478;9.224;2023-08-30T04:29:39;3.75;;;1.98;;
50128;SDS011;36026;45.478;9.224;2023-08-30T04:32:46;4.28;;;2.05;;
50128;SDS011;36026;45.478;9.224;2023-08-30T04:35:49;4.50;;;2.10;;
50128;SDS011;36026;45.478;9.224;2023-08-30T04:38:52;4.05;;;2.22;;
50128;SDS011;36026;45.478;9.224;2023-08-30T04:42:03;4.28;;;2.40;;
50128;SDS011;36026;45.478;9.224;2023-08-30T04:45:06;4.82;;;2.38;;
50128;SDS011;36026;45.478;9.224;2023-08-30T04:48:12;5.68;;;2.53;;
50128;SDS011;36026;45.478;9.224;2023-08-30T04:51:19;4.45;;;2.03;;
50128;SDS011;36026;45.478;9.224;2023-08-30T04:54:32;4.82;;;2.53;;
50128;SDS011;36026;45.478;9.224;2023-08-30T04:57:37;5.60;;;2.42;;
50128;SDS011;36026;45.478;9.224;2023-08-30T05:00:39;4.28;;;2.60;;
50128;SDS011;36026;45.478;9.224;2023-08-30T05:03:45;4.55;;;2.67;;
50128;SDS011;36026;45.478;9.224;2023-08-30T05:06:47;4.50;;;2.65;;
50128;SDS011;36026;45.478;9.224;2023-08-30T05:09:55;12.80;;;2.53;;
50128;SDS011;36026;45.478;9.224;2023-08-30T05:12:57;7.18;;;2.55;;
50128;SDS011;36026;45.478;9.224;2023-08-30T05:15:59;4.28;;;2.88;;
50128;SDS011;36026;45.478;9.224;2023-08-30T05:19:02;7.13;;;3.22;;
50128;SDS011;36026;45.478;9.224;2023-08-30T05:22:04;6.05;;;3.22;;
50128;SDS011;36026;45.478;9.224;2023-08-30T05:25:06;5.07;;;2.97;;
50128;SDS011;36026;45.478;9.224;2023-08-30T05:28:08;4.82;;;2.97;;
50128;SDS011;36026;45.478;9.224;2023-08-30T05:31:10;3.83;;;2.63;;
50128;SDS011;36026;45.478;9.224;2023-08-30T05:34:19;4.97;;;2.90;;
50128;SDS011;36026;45.478;9.224;2023-08-30T05:37:21;5.38;;;2.90;;
50128;SDS011;36026;45.478;9.224;2023-08-30T05:40:23;6.47;;;3.45;;
50128;SDS011;36026;45.478;9.224;2023-08-30T05:43:25;7.05;;;3.25;;
50128;SDS011;36026;45.478;9.224;2023-08-30T05:46:26;5.63;;;2.80;;
50128;SDS011;36026;45.478;9.224;2023-08-30T05:49:30;4.07;;;2.85;;
50128;SDS011;36026;45.478;9.224;2023-08-30T05:52:32;5.50;;;2.90;;
50128;SDS011;36026;45.478;9.224;2023-08-30T05:55:34;4.50;;;2.42;;
50128;SDS011;36026;45.478;9.224;2023-08-30T05:58:35;3.10;;;2.20;;
50128;SDS011;36026;45.478;9.224;2023-08-30T06:01:38;8.07;;;2.70;;
50128;SDS011;36026;45.478;9.224;2023-08-30T06:04:41;6.88;;;2.70;;
50128;SDS011;36026;45.478;9.224;2023-08-30T06:07:43;5.53;;;2.90;;
50128;SDS011;36026;45.478;9.224;2023-08-30T06:10:44;5.45;;;3.05;;
50128;SDS011;36026;45.478;9.224;2023-08-30T06:13:46;4.20;;;2.83;;
50128;SDS011;36026;45.478;9.224;2023-08-30T06:16:48;4.55;;;2.67;;
50128;SDS011;36026;45.478;9.224;2023-08-30T06:19:51;6.85;;;3.05;;
50128;SDS011;36026;45.478;9.224;2023-08-30T06:22:53;4.55;;;2.90;;
50128;SDS011;36026;45.478;9.224;2023-08-30T06:25:55;7.75;;;2.53;;
50128;SDS011;36026;45.478;9.224;2023-08-30T06:28:56;4.03;;;2.60;;
50128;SDS011;36026;45.478;9.224;2023-08-30T06:31:58;8.98;;;2.83;;
50128;SDS011;36026;45.478;9.224;2023-08-30T06:35:02;4.10;;;2.38;;
50128;SDS011;36026;45.478;9.224;2023-08-30T06:41:05;5.10;;;2.90;;
50128;SDS011;36026;45.478;9.224;2023-08-30T06:44:07;5.70;;;2.47;;
50128;SDS011;36026;45.478;9.224;2023-08-30T06:47:13;4.28;;;2.47;;
50128;SDS011;36026;45.478;9.224;2023-08-30T06:50:20;5.43;;;2.50;;
50128;SDS011;36026;45.478;9.224;2023-08-30T06:53:22;5.50;;;2.63;;
50128;SDS011;36026;45.478;9.224;2023-08-30T06:56:23;5.60;;;2.88;;
50128;SDS011;36026;45.478;9.224;2023-08-30T06:59:25;3.92;;;2.25;;
50128;SDS011;36026;45.478;9.224;2023-08-30T07:02:27;4.22;;;2.65;;
50128;SDS011;36026;45.478;9.224;2023-08-30T07:05:30;7.75;;;2.92;;
50128;SDS011;36026;45.478;9.224;2023-08-30T07:08:32;3.83;;;2.63;;
50128;SDS011;36026;45.478;9.224;2023-08-30T07:11:34;6.43;;;2.83;;
50128;SDS011;36026;45.478;9.224;2023-08-30T07:14:36;8.85;;;2.95;;
50128;SDS011;36026;45.478;9.224;2023-08-30T07:17:38;4.57;;;3.22;;
50128;SDS011;36026;45.478;9.224;2023-08-30T07:20:43;7.13;;;2.70;;
50128;SDS011;36026;45.478;9.224;2023-08-30T07:23:45;4.55;;;2.83;;
50128;SDS011;36026;45.478;9.224;2023-08-30T07:26:47;5.63;;;2.95;;
50128;SDS011;36026;45.478;9.224;2023-08-30T07:29:49;3.53;;;2.40;;
50128;SDS011;36026;45.478;9.224;2023-08-30T07:32:51;3.38;;;2.35;;
50128;SDS011;36026;45.478;9.224;2023-08-30T07:35:54;2.58;;;1.80;;
50128;SDS011;36026;45.478;9.224;2023-08-30T07:38:56;4.25;;;2.60;;
50128;SDS011;36026;45.478;9.224;2023-08-30T07:41:58;3.25;;;1.85;;
50128;SDS011;36026;45.478;9.224;2023-08-30T07:45:00;3.78;;;2.70;;
50128;SDS011;36026;45.478;9.224;2023-08-30T07:48:04;3.53;;;2.10;;
50128;SDS011;36026;45.478;9.224;2023-08-30T07:51:08;4.55;;;2.50;;
50128;SDS011;36026;45.478;9.224;2023-08-30T07:54:10;2.72;;;2.15;;
50128;SDS011;36026;45.478;9.224;2023-08-30T07:57:11;3.97;;;2.22;;
50128;SDS011;36026;45.478;9.224;2023-08-30T08:00:13;3.88;;;2.33;;
50128;SDS011;36026;45.478;9.224;2023-08-30T08:03:15;3.28;;;2.13;;
50128;SDS011;36026;45.478;9.224;2023-08-30T08:06:18;5.28;;;2.17;;
50128;SDS011;36026;45.478;9.224;2023-08-30T08:09:20;4.88;;;1.95;;
50128;SDS011;36026;45.478;9.224;2023-08-30T08:12:22;3.03;;;1.90;;
50128;SDS011;36026;45.478;9.224;2023-08-30T08:15:24;3.50;;;1.83;;
50128;SDS011;36026;45.478;9.224;2023-08-30T08:18:26;3.92;;;2.00;;
50128;SDS011;36026;45.478;9.224;2023-08-30T08:21:29;2.63;;;2.00;;
50128;SDS011;36026;45.478;9.224;2023-08-30T08:24:31;3.92;;;1.95;;
50128;SDS011;36026;45.478;9.224;2023-08-30T08:27:33;5.70;;;2.38;;
50128;SDS011;36026;45.478;9.224;2023-08-30T08:30:35;5.03;;;2.03;;
50128;SDS011;36026;45.478;9.224;2023-08-30T08:33:37;3.85;;;2.00;;
50128;SDS011;36026;45.478;9.224;2023-08-30T08:36:41;5.30;;;1.70;;
50128;SDS011;36026;45.478;9.224;2023-08-30T08:39:43;2.03;;;1.70;;
50128;SDS011;36026;45.478;9.224;2023-08-30T08:42:46;3.13;;;1.40;;
50128;SDS011;36026;45.478;9.224;2023-08-30T08:45:52;2.25;;;1.23;;
50128;SDS011;36026;45.478;9.224;2023-08-30T08:48:54;2.55;;;1.45;;
50128;SDS011;36026;45.478;9.224;2023-08-30T08:51:58;4.00;;;1.75;;
50128;SDS011;36026;45.478;9.224;2023-08-30T08:55:00;2.78;;;1.60;;
50128;SDS011;36026;45.478;9.224;2023-08-30T08:58:03;2.72;;;1.30;;
50128;SDS011;36026;45.478;9.224;2023-08-30T09:01:05;2.17;;;1.40;;
50128;SDS011;36026;45.478;9.224;2023-08-30T09:04:07;4.30;;;1.38;;
50128;SDS011;36026;45.478;9.224;2023-08-30T09:07:11;1.20;;;1.05;;
50128;SDS011;36026;45.478;9.224;2023-08-30T09:10:15;2.42;;;1.27;;
50128;SDS011;36026;45.478;9.224;2023-08-30T09:13:17;3.00;;;1.10;;
50128;SDS011;36026;45.478;9.224;2023-08-30T09:16:21;2.00;;;1.20;;
50128;SDS011;36026;45.478;9.224;2023-08-30T09:19:23;2.58;;;1.17;;
50128;SDS011;36026;45.478;9.224;2023-08-30T09:22:26;4.68;;;1.30;;
50128;SDS011;36026;45.478;9.224;2023-08-30T09:25:37;3.42;;;1.05;;
50128;SDS011;36026;45.478;9.224;2023-08-30T09:28:42;2.25;;;1.48;;
50128;SDS011;36026;45.478;9.224;2023-08-30T09:31:44;2.22;;;1.10;;
50128;SDS011;36026;45.478;9.224;2023-08-30T09:34:47;4.50;;;1.20;;
50128;SDS011;36026;45.478;9.224;2023-08-30T09:37:50;2.20;;;1.10;;
50128;SDS011;36026;45.478;9.224;2023-08-30T09:40:52;2.80;;;1.15;;
50128;SDS011;36026;45.478;9.224;2023-08-30T09:44:07;2.50;;;0.95;;
50128;SDS011;36026;45.478;9.224;2023-08-30T09:47:12;2.58;;;1.10;;
50128;SDS011;36026;45.478;9.224;2023-08-30T09:50:17;1.63;;;0.95;;
50128;SDS011;36026;45.478;9.224;2023-08-30T09:53:26;2.42;;;1.30;;
50128;SDS011;36026;45.478;9.224;2023-08-30T09:56:28;1.50;;;1.00;;
50128;SDS011;36026;45.478;9.224;2023-08-30T09:59:31;1.70;;;1.00;;
50128;SDS011;36026;45.478;9.224;2023-08-30T10:02:33;2.42;;;1.00;;
50128;SDS011;36026;45.478;9.224;2023-08-30T10:05:35;2.10;;;1.10;;
50128;SDS011;36026;45.478;9.224;2023-08-30T10:08:38;1.85;;;1.15;;
50128;SDS011;36026;45.478;9.224;2023-08-30T10:11:42;2.25;;;1.10;;
50128;SDS011;36026;45.478;9.224;2023-08-30T10:14:46;2.55;;;1.17;;
50128;SDS011;36026;45.478;9.224;2023-08-30T10:17:48;1.63;;;1.00;;
50128;SDS011;36026;45.478;9.224;2023-08-30T10:20:51;2.78;;;1.10;;
50128;SDS011;36026;45.478;9.224;2023-08-30T10:23:57;2.05;;;1.55;;
50128;SDS011;36026;45.478;9.224;2023-08-30T10:27:01;3.30;;;1.40;;
50128;SDS011;36026;45.478;9.224;2023-08-30T10:30:06;4.10;;;1.48;;
50128;SDS011;36026;45.478;9.224;2023-08-30T10:33:12;2.50;;;1.30;;
50128;SDS011;36026;45.478;9.224;2023-08-30T10:36:20;1.75;;;1.35;;
50128;SDS011;36026;45.478;9.224;2023-08-30T10:39:27;1.25;;;1.00;;
50128;SDS011;36026;45.478;9.224;2023-08-30T10:42:35;3.90;;;1.30;;
50128;SDS011;36026;45.478;9.224;2023-08-30T10:45:36;3.50;;;1.48;;
50128;SDS011;36026;45.478;9.224;2023-08-30T10:48:38;1.80;;;1.70;;
50128;SDS011;36026;45.478;9.224;2023-08-30T10:51:42;2.88;;;1.45;;
50128;SDS011;36026;45.478;9.224;2023-08-30T10:57:57;3.17;;;1.60;;
50128;SDS011;36026;45.478;9.224;2023-08-30T11:00:59;4.33;;;1.60;;
50128;SDS011;36026;45.478;9.224;2023-08-30T11:04:02;4.15;;;1.75;;
50128;SDS011;36026;45.478;9.224;2023-08-30T11:07:04;2.08;;;1.45;;
50128;SDS011;36026;45.478;9.224;2023-08-30T11:10:08;3.13;;;1.60;;
50128;SDS011;36026;45.478;9.224;2023-08-30T11:13:10;6.32;;;1.45;;
50128;SDS011;36026;45.478;9.224;2023-08-30T11:16:20;3.22;;;1.90;;
50128;SDS011;36026;45.478;9.224;2023-08-30T11:19:22;3.40;;;1.67;;
50128;SDS011;36026;45.478;9.224;2023-08-30T11:22:24;2.28;;;1.00;;
50128;SDS011;36026;45.478;9.224;2023-08-30T11:25:28;3.17;;;1.40;;
50128;SDS011;36026;45.478;9.224;2023-08-30T11:28:30;5.80;;;1.45;;
50128;SDS011;36026;45.478;9.224;2023-08-30T11:31:32;2.83;;;1.17;;
50128;SDS011;36026;45.478;9.224;2023-08-30T11:34:55;1.40;;;0.80;;
50128;SDS011;36026;45.478;9.224;2023-08-30T11:41:24;1.85;;;0.80;;
50128;SDS011;36026;45.478;9.224;2023-08-30T11:44:28;1.88;;;0.70;;
50128;SDS011;36026;45.478;9.224;2023-08-30T11:47:30;0.95;;;0.68;;
50128;SDS011;36026;45.478;9.224;2023-08-30T11:50:32;0.98;;;0.70;;
50128;SDS011;36026;45.478;9.224;2023-08-30T11:56:38;1.05;;;0.63;;
50128;SDS011;36026;45.478;9.224;2023-08-30T11:59:40;2.72;;;0.73;;
50128;SDS011;36026;45.478;9.224;2023-08-30T12:02:42;1.30;;;0.60;;
50128;SDS011;36026;45.478;9.224;2023-08-30T12:06:00;1.23;;;0.70;;
50128;SDS011;36026;45.478;9.224;2023-08-30T12:09:05;1.00;;;0.70;;
50128;SDS011;36026;45.478;9.224;2023-08-30T12:12:11;2.10;;;0.70;;
50128;SDS011;36026;45.478;9.224;2023-08-30T12:15:15;1.67;;;0.50;;
50128;SDS011;36026;45.478;9.224;2023-08-30T12:22:15;3.33;;;1.05;;
50128;SDS011;36026;45.478;9.224;2023-08-30T12:29:46;0.63;;;0.50;;
50128;SDS011;36026;45.478;9.224;2023-08-30T12:32:47;3.65;;;0.52;;
50128;SDS011;36026;45.478;9.224;2023-08-30T12:41:31;0.67;;;0.33;;
50128;SDS011;36026;45.478;9.224;2023-08-30T12:54:12;2.35;;;0.52;;
50128;SDS011;36026;45.478;9.224;2023-08-30T12:57:16;0.40;;;0.30;;
50128;SDS011;36026;45.478;9.224;2023-08-30T13:00:35;0.55;;;0.35;;
50128;SDS011;36026;45.478;9.224;2023-08-30T13:03:40;0.50;;;0.38;;
50128;SDS011;36026;45.478;9.224;2023-08-30T13:06:46;0.50;;;0.30;;
50128;SDS011;36026;45.478;9.224;2023-08-30T13:09:48;1.92;;;0.40;;
50128;SDS011;36026;45.478;9.224;2023-08-30T13:12:50;3.65;;;1.20;;
50128;SDS011;36026;45.478;9.224;2023-08-30T13:15:55;0.65;;;0.50;;
50128;SDS011;36026;45.478;9.224;2023-08-30T13:19:07;1.02;;;0.50;;
50128;SDS011;36026;45.478;9.224;2023-08-30T13:22:10;1.15;;;0.50;;
50128;SDS011;36026;45.478;9.224;2023-08-30T13:29:13;0.75;;;0.40;;
50128;SDS011;36026;45.478;9.224;2023-08-30T13:32:43;1.48;;;0.40;;
50128;SDS011;36026;45.478;9.224;2023-08-30T13:35:48;2.22;;;0.70;;
50128;SDS011;36026;45.478;9.224;2023-08-30T13:47:01;1.65;;;0.50;;
50128;SDS011;36026;45.478;9.224;2023-08-30T13:50:22;1.00;;;0.50;;
50128;SDS011;36026;45.478;9.224;2023-08-30T13:53:41;0.80;;;0.50;;
50128;SDS011;36026;45.478;9.224;2023-08-30T14:09:25;0.50;;;0.32;;
50128;SDS011;36026;45.478;9.224;2023-08-30T14:12:28;3.75;;;0.32;;
50128;SDS011;36026;45.478;9.224;2023-08-30T14:15:33;1.48;;;0.50;;
50128;SDS011;36026;45.478;9.224;2023-08-30T14:18:36;0.63;;;0.35;;
50128;SDS011;36026;45.478;9.224;2023-08-30T14:29:13;1.38;;;0.30;;
50128;SDS011;36026;45.478;9.224;2023-08-30T14:32:28;1.40;;;0.40;;
50128;SDS011;36026;45.478;9.224;2023-08-30T14:35:47;0.93;;;0.40;;
50128;SDS011;36026;45.478;9.224;2023-08-30T14:51:21;0.40;;;0.30;;
50128;SDS011;36026;45.478;9.224;2023-08-30T14:54:42;0.55;;;0.30;;
50128;SDS011;36026;45.478;9.224;2023-08-30T14:58:17;0.55;;;0.40;;
50128;SDS011;36026;45.478;9.224;2023-08-30T15:04:33;1.88;;;0.40;;
50128;SDS011;36026;45.478;9.224;2023-08-30T15:07:36;1.98;;;0.43;;
50128;SDS011;36026;45.478;9.224;2023-08-30T15:10:46;0.35;;;0.20;;
50128;SDS011;36026;45.478;9.224;2023-08-30T15:17:43;0.80;;;0.30;;
50128;SDS011;36026;45.478;9.224;2023-08-30T15:23:57;0.85;;;0.43;;
50128;SDS011;36026;45.478;9.224;2023-08-30T15:27:04;0.73;;;0.30;;
50128;SDS011;36026;45.478;9.224;2023-08-30T15:30:11;1.02;;;0.50;;
50128;SDS011;36026;45.478;9.224;2023-08-30T15:33:21;0.30;;;0.30;;
50128;SDS011;36026;45.478;9.224;2023-08-30T15:36:32;0.40;;;0.40;;
50128;SDS011;36026;45.478;9.224;2023-08-30T15:42:37;0.63;;;0.35;;
50128;SDS011;36026;45.478;9.224;2023-08-30T15:49:22;2.85;;;0.40;;
50128;SDS011;36026;45.478;9.224;2023-08-30T15:52:41;0.70;;;0.28;;
50128;SDS011;36026;45.478;9.224;2023-08-30T15:55:45;0.65;;;0.50;;
50128;SDS011;36026;45.478;9.224;2023-08-30T15:58:51;0.93;;;0.40;;
50128;SDS011;36026;45.478;9.224;2023-08-30T16:02:06;3.58;;;0.40;;
50128;SDS011;36026;45.478;9.224;2023-08-30T16:05:08;0.75;;;0.50;;
50128;SDS011;36026;45.478;9.224;2023-08-30T16:08:32;0.40;;;0.30;;
50128;SDS011;36026;45.478;9.224;2023-08-30T16:11:39;0.77;;;0.40;;
50128;SDS011;36026;45.478;9.224;2023-08-30T16:14:41;1.58;;;0.38;;
50128;SDS011;36026;45.478;9.224;2023-08-30T16:17:48;1.13;;;0.30;;
50128;SDS011;36026;45.478;9.224;2023-08-30T16:21:02;0.45;;;0.30;;
50128;SDS011;36026;45.478;9.224;2023-08-30T16:24:06;0.32;;;0.30;;
50128;SDS011;36026;45.478;9.224;2023-08-30T16:30:43;1.20;;;0.40;;
50128;SDS011;36026;45.478;9.224;2023-08-30T16:34:01;0.93;;;0.50;;
50128;SDS011;36026;45.478;9.224;2023-08-30T16:37:26;1.23;;;0.40;;
50128;SDS011;36026;45.478;9.224;2023-08-30T16:41:09;1.85;;;0.43;;
50128;SDS011;36026;45.478;9.224;2023-08-30T16:48:03;1.10;;;0.50;;
50128;SDS011;36026;45.478;9.224;2023-08-30T16:51:26;0.80;;;0.50;;
50128;SDS011;36026;45.478;9.224;2023-08-30T16:59:35;1.63;;;0.65;;
50128;SDS011;36026;45.478;9.224;2023-08-30T17:02:40;0.73;;;0.50;;
50128;SDS011;36026;45.478;9.224;2023-08-30T17:05:45;2.03;;;1.40;;
50128;SDS011;36026;45.478;9.224;2023-08-30T17:08:47;1.17;;;0.55;;
50128;SDS011;36026;45.478;9.224;2023-08-30T17:12:16;1.40;;;0.65;;
50128;SDS011;36026;45.478;9.224;2023-08-30T17:15:19;0.75;;;0.50;;
50128;SDS011;36026;45.478;9.224;2023-08-30T17:18:35;0.75;;;0.40;;
50128;SDS011;36026;45.478;9.224;2023-08-30T17:21:53;1.70;;;0.50;;
50128;SDS011;36026;45.478;9.224;2023-08-30T17:25:57;3.90;;;0.68;;
50128;SDS011;36026;45.478;9.224;2023-08-30T17:29:18;1.35;;;0.50;;
50128;SDS011;36026;45.478;9.224;2023-08-30T17:32:19;4.47;;;0.70;;
50128;SDS011;36026;45.478;9.224;2023-08-30T17:35:25;1.27;;;0.70;;
50128;SDS011;36026;45.478;9.224;2023-08-30T17:38:29;2.55;;;0.80;;
50128;SDS011;36026;45.478;9.224;2023-08-30T17:41:31;1.03;;;0.60;;
50128;SDS011;36026;45.478;9.224;2023-08-30T17:44:41;1.23;;;0.60;;
50128;SDS011;36026;45.478;9.224;2023-08-30T17:48:01;3.30;;;1.23;;
50128;SDS011;36026;45.478;9.224;2023-08-30T17:51:07;2.70;;;0.90;;
50128;SDS011;36026;45.478;9.224;2023-08-30T17:54:21;2.22;;;0.50;;
50128;SDS011;36026;45.478;9.224;2023-08-30T17:57:33;0.80;;;0.60;;
50128;SDS011;36026;45.478;9.224;2023-08-30T18:00:48;1.02;;;0.55;;
50128;SDS011;36026;45.478;9.224;2023-08-30T18:03:52;1.33;;;0.77;;
50128;SDS011;36026;45.478;9.224;2023-08-30T18:06:55;4.05;;;0.70;;
50128;SDS011;36026;45.478;9.224;2023-08-30T18:10:00;1.92;;;0.70;;
50128;SDS011;36026;45.478;9.224;2023-08-30T18:13:02;2.13;;;0.70;;
50128;SDS011;36026;45.478;9.224;2023-08-30T18:16:04;3.95;;;0.80;;
50128;SDS011;36026;45.478;9.224;2023-08-30T18:19:07;1.23;;;0.40;;
50128;SDS011;36026;45.478;9.224;2023-08-30T18:22:10;0.93;;;0.50;;
50128;SDS011;36026;45.478;9.224;2023-08-30T18:28:13;2.20;;;0.50;;
50128;SDS011;36026;45.478;9.224;2023-08-30T18:31:15;2.70;;;0.40;;
50128;SDS011;36026;45.478;9.224;2023-08-30T18:34:19;1.27;;;0.50;;
50128;SDS011;36026;45.478;9.224;2023-08-30T18:37:22;3.88;;;0.55;;
50128;SDS011;36026;45.478;9.224;2023-08-30T18:40:24;1.38;;;0.60;;
50128;SDS011;36026;45.478;9.224;2023-08-30T18:43:30;1.63;;;0.65;;
50128;SDS011;36026;45.478;9.224;2023-08-30T18:46:43;2.00;;;0.80;;
50128;SDS011;36026;45.478;9.224;2023-08-30T18:50:01;3.30;;;0.77;;
50128;SDS011;36026;45.478;9.224;2023-08-30T18:53:05;0.90;;;0.73;;
50128;SDS011;36026;45.478;9.224;2023-08-30T18:56:08;3.20;;;0.90;;
50128;SDS011;36026;45.478;9.224;2023-08-30T18:59:10;2.13;;;0.90;;
50128;SDS011;36026;45.478;9.224;2023-08-30T19:02:12;2.30;;;1.02;;
50128;SDS011;36026;45.478;9.224;2023-08-30T19:05:14;1.80;;;1.00;;
50128;SDS011;36026;45.478;9.224;2023-08-30T19:08:17;2.58;;;1.20;;
50128;SDS011;36026;45.478;9.224;2023-08-30T19:11:20;1.17;;;0.73;;
50128;SDS011;36026;45.478;9.224;2023-08-30T19:14:22;3.72;;;1.10;;
50128;SDS011;36026;45.478;9.224;2023-08-30T19:17:25;1.75;;;1.00;;
50128;SDS011;36026;45.478;9.224;2023-08-30T19:20:30;2.53;;;0.93;;
50128;SDS011;36026;45.478;9.224;2023-08-30T19:23:36;2.28;;;0.90;;
50128;SDS011;36026;45.478;9.224;2023-08-30T19:29:56;3.20;;;1.17;;
50128;SDS011;36026;45.478;9.224;2023-08-30T19:33:02;2.50;;;1.20;;
50128;SDS011;36026;45.478;9.224;2023-08-30T19:36:05;2.75;;;1.50;;
50128;SDS011;36026;45.478;9.224;2023-08-30T19:39:29;2.10;;;1.35;;
50128;SDS011;36026;45.478;9.224;2023-08-30T19:42:44;3.13;;;1.25;;
50128;SDS011;36026;45.478;9.224;2023-08-30T19:45:59;3.60;;;1.20;;
50128;SDS011;36026;45.478;9.224;2023-08-30T19:49:01;2.33;;;1.40;;
50128;SDS011;36026;45.478;9.224;2023-08-30T19:52:03;3.92;;;1.23;;
50128;SDS011;36026;45.478;9.224;2023-08-30T19:55:07;4.03;;;1.50;;
50128;SDS011;36026;45.478;9.224;2023-08-30T19:58:16;2.38;;;1.17;;
50128;SDS011;36026;45.478;9.224;2023-08-30T20:01:27;2.38;;;1.10;;
50128;SDS011;36026;45.478;9.224;2023-08-30T20:04:29;2.40;;;1.20;;
50128;SDS011;36026;45.478;9.224;2023-08-30T20:07:31;2.42;;;1.50;;
50128;SDS011;36026;45.478;9.224;2023-08-30T20:10:38;2.65;;;1.40;;
50128;SDS011;36026;45.478;9.224;2023-08-30T20:13:40;2.40;;;1.40;;
50128;SDS011;36026;45.478;9.224;2023-08-30T20:16:41;4.25;;;1.00;;
50128;SDS011;36026;45.478;9.224;2023-08-30T20:19:43;4.00;;;0.85;;
50128;SDS011;36026;45.478;9.224;2023-08-30T20:22:46;1.50;;;0.80;;
50128;SDS011;36026;45.478;9.224;2023-08-30T20:25:51;2.20;;;0.60;;
50128;SDS011;36026;45.478;9.224;2023-08-30T20:28:54;1.25;;;0.80;;
50128;SDS011;36026;45.478;9.224;2023-08-30T20:31:55;1.88;;;1.00;;
50128;SDS011;36026;45.478;9.224;2023-08-30T20:34:57;1.77;;;1.00;;